This is the latest recevied weather packets stored in our database for station/object W2SBL-1. If no packets are shown the sender has not sent any weather packets the latest 1 day(s).
| Time | Temp. | Humidity | Pressure | Rain* | Wind** | Luminosity | Snow |
|---|---|---|---|---|---|---|---|
| 1777899440 | 17.78° C | 37% | 1013.8 hPa | - | - | - | - |
| 1777898539 | 17.22° C | 37% | 1013.9 hPa | - | - | - | - |
| 1777897639 | 16.67° C | 37% | 1013.7 hPa | - | - | - | - |
| 1777896739 | 16.67° C | 37% | 1013.8 hPa | - | - | - | - |
| 1777895839 | 15.56° C | 37% | 1013.8 hPa | - | - | - | - |
| 1777894939 | 15° C | 37% | 1013.8 hPa | - | - | - | - |
| 1777894039 | 14.44° C | 37% | 1013.8 hPa | - | - | - | - |
| 1777893139 | 13.89° C | 38% | 1013.9 hPa | - | - | - | - |
| 1777892239 | 12.78° C | 39% | 1013.8 hPa | - | - | - | - |
| 1777891339 | 12.78° C | 38% | 1013.8 hPa | - | - | - | - |
| 1777890438 | 12.22° C | 39% | 1013.7 hPa | - | - | - | - |
| 1777889538 | 5.56° C | 39% | 1006.1 hPa | - | - | - | - |
| 1777888638 | 7.78° C | 39% | 1006.5 hPa | - | - | - | - |
| 1777887738 | 12.22° C | 38% | 1013.2 hPa | - | - | - | - |
| 1777886838 | 12.22° C | 39% | 1013.2 hPa | - | - | - | - |
| 1777885938 | 12.22° C | 39% | 1013.1 hPa | - | - | - | - |
| 1777885038 | 11.67° C | 38% | 1013.2 hPa | - | - | - | - |
| 1777884138 | 11.67° C | 39% | 1013 hPa | - | - | - | - |
| 1777883238 | 11.67° C | 38% | 1012.9 hPa | - | - | - | - |
| 1777882338 | 11.67° C | 38% | 1012.9 hPa | - | - | - | - |
| 1777881438 | 12.22° C | 38% | 1012.8 hPa | - | - | - | - |
| 1777880538 | 12.22° C | 38% | 1012.7 hPa | - | - | - | - |
| 1777878737 | 12.22° C | 38% | 1012.4 hPa | - | - | - | - |
| 1777877837 | 12.22° C | 37% | 1012.5 hPa | - | - | - | - |
| 1777876937 | 12.22° C | 37% | 1012.2 hPa | - | - | - | - |
* Rain since midnight (hover to see other rain measurements)
** Current wind speed in m/s (hover to see current wind gust speed)